createdAt,value
2022-10-02T00:01:12.142Z,22.31
2022-10-02T00:06:22.618Z,22.04
2022-10-02T00:11:33.046Z,21.74
2022-10-02T00:16:41.180Z,21.82
2022-10-02T00:22:03.000Z,21.55
2022-10-02T00:27:28.160Z,21.43
2022-10-02T00:32:42.000Z,21.46
2022-10-02T00:37:53.250Z,21.27
2022-10-02T00:43:15.946Z,21.44
2022-10-02T00:54:32.200Z,21.01
2022-10-02T00:59:54.560Z,20.52
2022-10-02T01:04:59.925Z,20.41
2022-10-02T01:10:05.503Z,20.51
2022-10-02T01:15:13.725Z,20.26
2022-10-02T01:20:20.723Z,20.01
2022-10-02T01:25:26.090Z,19.80
2022-10-02T01:30:31.350Z,19.63
2022-10-02T01:35:37.851Z,19.54
2022-10-02T01:40:43.094Z,19.28
2022-10-02T01:45:58.646Z,19.21
2022-10-02T01:51:19.235Z,18.97
2022-10-02T01:56:31.725Z,18.81
2022-10-02T02:01:48.099Z,18.75
2022-10-02T02:06:58.619Z,18.66
2022-10-02T02:12:14.197Z,18.67
2022-10-02T02:17:25.097Z,18.56
2022-10-02T02:22:31.851Z,18.48
2022-10-02T02:27:42.168Z,18.44
2022-10-02T02:32:49.352Z,18.41
2022-10-02T02:37:56.926Z,18.27
2022-10-02T02:43:07.171Z,18.33
2022-10-02T02:48:20.835Z,18.51
2022-10-02T02:53:28.857Z,18.30
2022-10-02T02:58:38.599Z,18.13
2022-10-02T03:03:42.406Z,17.82
2022-10-02T03:08:48.418Z,17.72
2022-10-02T03:14:06.396Z,17.62
2022-10-02T03:19:25.073Z,17.53
2022-10-02T03:24:36.935Z,17.44
2022-10-02T03:29:50.494Z,17.38
2022-10-02T03:34:54.424Z,17.33
2022-10-02T03:40:01.027Z,17.21
2022-10-02T03:45:07.445Z,17.17
2022-10-02T03:50:19.848Z,17.13
2022-10-02T03:55:31.502Z,17.11
2022-10-02T04:00:39.944Z,17.11
2022-10-02T04:05:48.574Z,17.12
2022-10-02T04:11:01.139Z,17.12
2022-10-02T04:16:11.260Z,17.16
2022-10-02T04:21:22.467Z,17.08
2022-10-02T04:26:29.867Z,17.09
2022-10-02T04:31:35.132Z,17.18
2022-10-02T04:36:46.656Z,17.23
2022-10-02T04:42:09.025Z,17.28
2022-10-02T04:47:38.153Z,17.34
2022-10-02T04:52:55.985Z,17.30
2022-10-02T04:58:34.856Z,17.36
2022-10-02T05:03:58.752Z,17.56
2022-10-02T05:09:12.860Z,17.59
2022-10-02T05:14:31.806Z,17.63
2022-10-02T05:19:51.583Z,17.70
2022-10-02T05:25:15.684Z,17.77
2022-10-02T05:30:20.330Z,17.91
2022-10-02T05:35:46.018Z,18.27
2022-10-02T05:41:01.800Z,18.58
2022-10-02T05:46:15.390Z,18.68
2022-10-02T05:51:32.387Z,18.56
2022-10-02T05:56:43.389Z,18.29
2022-10-02T06:01:50.181Z,18.70
2022-10-02T06:06:58.203Z,18.66
2022-10-02T06:12:05.292Z,18.38
2022-10-02T06:17:12.421Z,17.99
2022-10-02T06:22:21.584Z,17.93
2022-10-02T06:27:33.557Z,17.86
2022-10-02T06:32:42.894Z,17.78
2022-10-02T06:38:00.845Z,17.71
2022-10-02T06:43:11.839Z,17.78
2022-10-02T06:48:25.802Z,17.77
2022-10-02T06:53:57.031Z,17.77
2022-10-02T06:59:11.729Z,17.78
2022-10-02T07:04:30.497Z,17.70
2022-10-02T07:09:59.627Z,17.70
2022-10-02T07:15:22.754Z,17.62
2022-10-02T07:20:34.427Z,17.66
2022-10-02T07:25:53.462Z,17.71
2022-10-02T07:31:02.460Z,17.71
2022-10-02T07:36:12.718Z,17.68
2022-10-02T07:41:34.260Z,17.72
2022-10-02T07:46:47.447Z,17.75
2022-10-02T07:51:57.574Z,17.66
2022-10-02T07:57:12.612Z,17.66
2022-10-02T08:02:24.722Z,17.75
2022-10-02T08:07:30.633Z,17.58
2022-10-02T08:12:40.947Z,17.50
2022-10-02T08:17:50.437Z,17.55
2022-10-02T08:23:02.470Z,17.55
2022-10-02T08:28:16.989Z,17.64
2022-10-02T08:33:22.077Z,17.47
2022-10-02T08:38:37.154Z,17.37
2022-10-02T08:44:10.458Z,17.38
2022-10-02T08:49:58.112Z,17.44
2022-10-02T08:55:25.924Z,17.44
2022-10-02T09:00:46.124Z,17.45
2022-10-02T09:06:17.135Z,17.38
2022-10-02T09:12:10.285Z,17.40
2022-10-02T09:17:43.814Z,17.42
2022-10-02T09:23:07.902Z,17.39
2022-10-02T09:28:44.587Z,17.36
2022-10-02T09:34:16.998Z,17.32
2022-10-02T09:39:53.111Z,17.32
2022-10-02T09:45:28.410Z,17.30
2022-10-02T09:51:22.538Z,17.42
2022-10-02T09:56:56.342Z,17.36
2022-10-02T10:02:34.903Z,17.36
2022-10-02T10:08:01.537Z,17.40
2022-10-02T10:13:52.350Z,17.36
2022-10-02T10:19:22.146Z,17.37
2022-10-02T10:24:53.144Z,17.31
2022-10-02T10:30:17.815Z,17.30
2022-10-02T10:35:45.057Z,17.34
2022-10-02T10:41:05.638Z,17.34
2022-10-02T10:46:33.465Z,17.36
2022-10-02T10:51:42.166Z,17.22
2022-10-02T10:56:51.023Z,17.14
2022-10-02T11:02:13.129Z,17.07
2022-10-02T11:07:40.706Z,17.09
2022-10-02T11:13:19.093Z,17.13
2022-10-02T11:18:48.455Z,17.08
2022-10-02T11:24:23.606Z,17.03
2022-10-02T11:29:52.516Z,16.93
2022-10-02T11:35:30.975Z,16.90
2022-10-02T11:40:47.954Z,16.83
2022-10-02T11:46:15.039Z,16.81
2022-10-02T11:52:05.283Z,16.83
2022-10-02T11:57:31.106Z,16.86
2022-10-02T12:02:39.622Z,16.72
2022-10-02T12:07:54.347Z,16.70
2022-10-02T12:13:33.321Z,16.70
2022-10-02T12:18:58.481Z,16.66
2022-10-02T12:24:12.888Z,16.64
2022-10-02T12:29:23.010Z,16.52
2022-10-02T12:34:40.965Z,16.54
2022-10-02T12:39:54.568Z,16.47
2022-10-02T12:45:24.051Z,16.39
2022-10-02T12:50:50.226Z,16.32
2022-10-02T12:56:43.976Z,16.31
2022-10-02T13:02:59.938Z,16.27
2022-10-02T13:08:29.910Z,16.23
2022-10-02T13:13:57.668Z,16.17
2022-10-02T13:19:14.705Z,16.12
2022-10-02T13:24:33.972Z,16.13
2022-10-02T13:29:47.854Z,16.11
2022-10-02T13:35:16.320Z,16.09
2022-10-02T13:40:28.657Z,16.01
2022-10-02T13:45:39.019Z,16.17
2022-10-02T13:50:53.438Z,16.29
2022-10-02T13:56:05.131Z,16.30
2022-10-02T14:01:24.007Z,16.37
2022-10-02T14:06:33.969Z,16.30
2022-10-02T14:11:54.611Z,16.43
2022-10-02T14:17:08.032Z,16.38
2022-10-02T14:22:30.160Z,16.40
2022-10-02T14:28:16.354Z,16.32
2022-10-02T14:33:32.091Z,16.40
2022-10-02T14:38:49.018Z,16.44
2022-10-02T14:44:13.976Z,16.54
2022-10-02T14:49:41.250Z,16.57
2022-10-02T14:54:59.893Z,16.52
2022-10-02T15:00:42.568Z,16.51
2022-10-02T15:06:10.798Z,16.59
2022-10-02T15:11:25.289Z,16.66
2022-10-02T15:16:43.582Z,16.70
2022-10-02T15:21:58.960Z,16.85
2022-10-02T15:27:18.668Z,16.96
2022-10-02T15:32:56.446Z,16.95
2022-10-02T15:38:21.490Z,17.18
2022-10-02T15:43:42.533Z,17.36
2022-10-02T15:49:00.892Z,17.52
2022-10-02T15:54:22.843Z,17.82
2022-10-02T15:59:40.080Z,18.04
2022-10-02T16:04:59.380Z,17.99
2022-10-02T16:10:18.730Z,18.00
2022-10-02T16:15:27.306Z,18.17
2022-10-02T16:20:52.279Z,18.46
2022-10-02T16:26:14.630Z,18.54
2022-10-02T16:31:42.282Z,18.59
2022-10-02T16:36:52.290Z,18.50
2022-10-02T16:42:13.296Z,18.79
2022-10-02T16:47:27.216Z,18.94
2022-10-02T16:52:38.591Z,19.48
2022-10-02T16:58:12.831Z,20.06
2022-10-02T17:03:26.032Z,20.08
2022-10-02T17:08:37.500Z,20.15
2022-10-02T17:13:58.210Z,20.17
2022-10-02T17:19:14.369Z,20.54
2022-10-02T17:24:44.447Z,20.44
2022-10-02T17:30:15.839Z,20.41
2022-10-02T17:35:37.427Z,20.42
2022-10-02T17:40:51.051Z,20.96
2022-10-02T17:46:06.203Z,21.38
2022-10-02T17:51:51.230Z,22.20
2022-10-02T17:57:16.096Z,22.37
2022-10-02T18:02:37.365Z,22.50
2022-10-02T18:07:57.611Z,22.45
2022-10-02T18:13:30.447Z,22.70
2022-10-02T18:18:40.872Z,22.58
2022-10-02T18:24:02.600Z,22.96
2022-10-02T18:29:36.002Z,23.02
2022-10-02T18:35:09.731Z,22.96
2022-10-02T18:40:24.459Z,22.89
2022-10-02T18:45:47.049Z,23.10
2022-10-02T18:51:05.439Z,23.47
2022-10-02T18:56:09.780Z,23.39
2022-10-02T19:01:43.637Z,23.54
2022-10-02T19:06:52.882Z,23.31
2022-10-02T19:11:58.104Z,23.66
2022-10-02T19:17:02.072Z,23.71
2022-10-02T19:22:19.711Z,23.88
2022-10-02T19:27:30.057Z,23.94
2022-10-02T19:32:37.048Z,24.15
2022-10-02T19:37:44.646Z,24.62
2022-10-02T19:42:50.801Z,24.83
2022-10-02T19:47:58.901Z,24.88
2022-10-02T19:53:07.567Z,25.16
2022-10-02T19:58:19.345Z,24.62
2022-10-02T20:03:25.077Z,24.60
2022-10-02T20:08:34.019Z,24.36
2022-10-02T20:13:44.145Z,24.82
2022-10-02T20:18:48.354Z,25.06
2022-10-02T20:23:57.211Z,25.20
2022-10-02T20:29:03.507Z,24.92
2022-10-02T20:34:20.923Z,24.93
2022-10-02T20:39:30.216Z,24.62
2022-10-02T20:44:35.690Z,24.67
2022-10-02T20:50:10.902Z,24.89
2022-10-02T20:55:24.735Z,24.85
2022-10-02T21:00:28.930Z,24.87
2022-10-02T21:06:09.497Z,24.89
2022-10-02T21:11:29.012Z,25.00
2022-10-02T21:17:07.474Z,24.85
2022-10-02T21:22:37.746Z,24.78
2022-10-02T21:28:28.656Z,24.77
2022-10-02T21:33:40.079Z,24.67
2022-10-02T21:39:19.745Z,24.75
2022-10-02T21:45:22.730Z,24.87
2022-10-02T21:51:07.931Z,24.80
2022-10-02T21:56:52.488Z,24.88
2022-10-02T22:02:28.489Z,24.89
2022-10-02T22:07:38.065Z,24.71
2022-10-02T22:12:58.266Z,24.65
2022-10-02T22:18:16.690Z,24.63
2022-10-02T22:23:42.243Z,24.54
2022-10-02T22:28:49.391Z,24.36
2022-10-02T22:34:06.305Z,24.38
2022-10-02T22:39:15.328Z,24.29
2022-10-02T22:44:24.387Z,24.31
2022-10-02T22:49:38.247Z,24.18
2022-10-02T22:54:47.419Z,24.13
2022-10-02T22:59:58.334Z,23.93
2022-10-02T23:05:10.543Z,23.70
2022-10-02T23:10:22.723Z,23.67
2022-10-02T23:15:38.085Z,23.65
2022-10-02T23:20:51.089Z,23.48
2022-10-02T23:26:01.204Z,23.23
2022-10-02T23:31:18.209Z,23.32
2022-10-02T23:36:29.962Z,23.30
2022-10-02T23:41:35.656Z,23.05
2022-10-02T23:47:02.583Z,22.99
2022-10-02T23:52:27.085Z,22.80
2022-10-02T23:57:57.071Z,22.75
